CST,Max TemperatureF,Mean TemperatureF,Min TemperatureF,Max Dew PointF,MeanDew PointF,Min DewpointF,Max Humidity, Mean Humidity, Min Humidity, Max Sea Level PressureIn, Mean Sea Level PressureIn, Min Sea Level PressureIn, Max VisibilityMiles, Mean VisibilityMiles, Min VisibilityMiles, Max Wind SpeedMPH, Mean Wind SpeedMPH, Max Gust SpeedMPH,PrecipitationIn, CloudCover, Events, WindDirDegrees
2012-11-1,66,52,39,43,36,27,75,59,39,30.01,29.97,29.91,10,10,10,16,6,21,0.00,2,,307
2012-11-2,51,42,33,34,31,27,81,62,44,30.09,30.04,30.00,10,10,10,15,7,18,0.00,1,,75
2012-11-3,55,47,39,34,31,28,70,55,36,30.22,30.15,30.06,10,10,7,10,6,,0.00,3,,32
2012-11-4,53,44,35,43,36,28,81,74,58,30.23,30.17,30.08,10,10,5,12,6,,0.00,6,Rain,148
2012-11-5,44,42,41,39,37,36,87,80,76,30.15,30.11,30.05,7,5,3,15,9,18,0.00,8,Rain,90
2012-11-6,55,48,42,43,38,34,87,70,47,30.09,29.97,29.90,10,7,1,25,10,33,0.00,7,Rain,272
2012-11-7,48,42,35,37,33,28,81,70,58,30.17,30.11,30.00,10,10,10,18,11,26,0.00,4,,6
2012-11-8,62,48,35,39,35,28,81,63,34,30.14,30.03,29.94,10,10,10,18,10,22,0.00,0,,159
2012-11-9,66,56,46,55,47,37,77,69,55,29.96,29.87,29.81,10,10,10,13,8,16,0.00,2,,147
2012-11-10,77,70,62,59,55,48,77,62,46,29.80,29.71,29.63,10,10,10,30,18,38,0.00,0,,180
2012-11-11,66,46,26,55,34,18,87,78,60,30.15,29.89,29.68,10,9,2,21,13,30,1.23,6,Rain-Snow,275
2012-11-12,39,31,23,25,20,18,80,65,49,30.41,30.26,30.15,10,10,10,22,9,30,0.00,0,,259
2012-11-13,51,37,23,32,25,18,80,59,35,30.45,30.40,30.35,10,10,10,14,6,12,0.00,0,,170
2012-11-14,59,47,35,34,29,19,81,54,22,30.39,30.33,30.28,10,10,10,16,8,22,0.00,0,,179
2012-11-15,59,48,37,36,32,28,75,57,36,30.42,30.31,30.27,10,10,7,12,7,,0.00,1,,221
2012-11-16,57,42,28,37,31,25,87,67,36,30.47,30.43,30.39,10,10,4,9,5,,0.00,0,,309
2012-11-17,62,50,37,37,32,28,75,57,27,30.41,30.35,30.29,10,10,10,20,9,28,0.00,0,,159
2012-11-18,62,52,41,36,32,28,65,47,30,30.30,30.23,30.17,10,10,10,17,12,22,0.00,1,,164
2012-11-19,64,54,44,46,42,30,82,64,38,30.18,30.09,30.04,10,10,5,20,10,25,0.01,2,Rain,190
2012-11-20,62,50,39,45,39,34,87,70,48,30.20,30.16,30.07,10,9,4,9,6,,0.00,0,,280
2012-11-21,71,55,39,45,39,34,87,59,27,30.20,30.09,29.95,10,9,4,20,11,25,0.00,0,,192
2012-11-22,69,55,41,52,41,32,76,58,35,30.16,29.91,29.76,10,10,10,28,16,36,0.00,0,,231
2012-11-23,41,31,21,30,18,14,80,59,41,30.41,30.34,30.17,10,10,10,29,17,41,0.00,2,,305
2012-11-24,39,28,17,25,17,12,80,64,42,30.38,30.15,29.87,10,10,7,15,7,17,0.00,0,,197
2012-11-25,42,37,32,27,26,25,80,62,53,30.14,29.98,29.86,10,10,10,12,8,16,0.00,1,,336
2012-11-26,35,26,17,27,17,9,75,60,51,30.45,30.33,30.15,10,10,10,16,10,22,0.00,3,,360
2012-11-27,39,26,12,18,12,7,79,60,31,30.44,30.34,30.23,10,10,5,15,6,18,0.00,0,,218
2012-11-28,50,36,21,28,23,18,86,62,34,30.42,30.31,30.18,10,10,10,10,6,9,0.00,0,,200
2012-11-29,55,44,33,37,32,27,81,68,47,30.18,30.06,29.97,10,10,10,15,8,18,0.00,0,,171
2012-11-30,53,43,33,39,35,28,87,76,58,30.09,30.04,29.98,10,7,2,8,3,,0.00,0,,156